Excellent Pescadores — HORK — position and weather

sailwx.info

Track history (hours):
 
Tides and Currents Weather Stations Pressure Air Temp Water Temp Dewpoint Dewpoint Depression Visibility Wind Speed Wind Dir Waves Ship Positions

Excellent Pescadores

Last reported at 2014-Nov-20 20:22 UTC. Time now 2014-Dec-21 11:22 UTC.
Position S 29°60' E 031°41'.
Warning: this ship's position is 30 days out of date.

Length 148 m; draft 9 m.

Type: Cargo ship. MMSI: 356291000.

Date/timePositionNaut miles runAvg speedWind from/ knotsBaromVisibWave heightAir tempDewpointWater temp
2014-Nov-20 20:22S 29°60' E 031°41'911.0
2014-Nov-20 19:33S 29°57' E 031°31'1111.5
2014-Nov-20 18:33S 29°54' E 031°19'1111.3
2014-Nov-20 17:33S 29°51' E 031°06'4 3.7
2014-Nov-20 16:30S 29°52' E 031°02'0 0.0
2014-Nov-20 15:30S 29°52' E 031°02'0 0.0
2014-Nov-20 14:30S 29°52' E 031°02'0 0.0
2014-Nov-20 13:30S 29°52' E 031°02'0 0.0
2014-Nov-20 12:30S 29°52' E 031°02'0 0.0
2014-Nov-20 11:30S 29°52' E 031°02'0 0.0
2014-Nov-20 10:30S 29°52' E 031°02'0 0.0
2014-Nov-20 09:30S 29°52' E 031°02'0 0.0
2014-Nov-20 08:30S 29°52' E 031°02'0 0.0
2014-Nov-20 07:24S 29°52' E 031°02'0 0.0
2014-Nov-20 06:30S 29°52' E 031°02'0 0.0
2014-Nov-20 05:30S 29°52' E 031°02'0 0.0
2014-Nov-20 04:30S 29°52' E 031°02'0 0.0
2014-Nov-20 03:30S 29°52' E 031°02'0 0.1
2014-Nov-20 02:33S 29°52' E 031°02'6 5.6
2014-Nov-20 01:34S 29°49' E 031°07'3 2.8
2014-Nov-20 00:31S 29°47' E 031°10'0 0.0
2014-Nov-19 23:31S 29°47' E 031°10'0 0.0
2014-Nov-19 22:31S 29°47' E 031°10'0 0.1
2014-Nov-19 21:30S 29°47' E 031°10'0 0.0
2014-Nov-19 20:30S 29°47' E 031°10'0 0.0
2014-Nov-19 19:30S 29°47' E 031°10'0 0.0
2014-Nov-19 18:30S 29°47' E 031°10'0 0.0
2014-Nov-19 17:30S 29°47' E 031°10'0 0.0
2014-Nov-19 16:30S 29°47' E 031°10'0 0.0
2014-Nov-19 15:30S 29°47' E 031°10'0 0.1
2014-Nov-19 14:30S 29°47' E 031°10'0 0.1
2014-Nov-19 13:30S 29°47' E 031°10'0 0.0
2014-Nov-19 12:30S 29°47' E 031°10'0 0.0
2014-Nov-19 11:30S 29°47' E 031°10'0 0.0
2014-Nov-19 10:24S 29°47' E 031°10'0 0.0
2014-Nov-19 09:30S 29°47' E 031°10'0 0.0
2014-Nov-19 08:30S 29°47' E 031°10'0 0.0
2014-Nov-19 07:30S 29°47' E 031°10'0 0.0
2014-Nov-19 06:30S 29°47' E 031°10'1 1.2
2014-Nov-19 05:33S 29°48' E 031°09'6 6.3
2014-Nov-19 04:34S 29°54' E 031°06'9 8.9
2014-Nov-19 03:34S 30°02' E 031°03'315 8.7
2014-Nov-17 15:29S 33°55' E 026°53'435 9.6
2014-Nov-15 18:08S 34°16' E 018°08'  
Track history (hours):
 
Tides and Currents Weather Stations Pressure Air Temp Water Temp Dewpoint Dewpoint Depression Visibility Wind Speed Wind Dir Waves Ship Positions

Excellent Pescadores

Last reported at 2014-Nov-20 20:22 UTC. Time now 2014-Dec-21 11:22 UTC.
Position S 29°60' E 031°41'.
Warning: this ship's position is 30 days out of date.

Length 148 m; draft 9 m.

Type: Cargo ship. MMSI: 356291000.

Date/timePositionNaut miles runAvg speedWind from/ knotsBaromVisibWave heightAir tempDewpointWater temp
2014-Nov-20 20:22S 29°60' E 031°41'911.0
2014-Nov-20 19:33S 29°57' E 031°31'1111.5
2014-Nov-20 18:33S 29°54' E 031°19'1111.3
2014-Nov-20 17:33S 29°51' E 031°06'4 3.7
2014-Nov-20 16:30S 29°52' E 031°02'0 0.0
2014-Nov-20 15:30S 29°52' E 031°02'0 0.0
2014-Nov-20 14:30S 29°52' E 031°02'0 0.0
2014-Nov-20 13:30S 29°52' E 031°02'0 0.0
2014-Nov-20 12:30S 29°52' E 031°02'0 0.0
2014-Nov-20 11:30S 29°52' E 031°02'0 0.0
2014-Nov-20 10:30S 29°52' E 031°02'0 0.0
2014-Nov-20 09:30S 29°52' E 031°02'0 0.0
2014-Nov-20 08:30S 29°52' E 031°02'0 0.0
2014-Nov-20 07:24S 29°52' E 031°02'0 0.0
2014-Nov-20 06:30S 29°52' E 031°02'0 0.0
2014-Nov-20 05:30S 29°52' E 031°02'0 0.0
2014-Nov-20 04:30S 29°52' E 031°02'0 0.0
2014-Nov-20 03:30S 29°52' E 031°02'0 0.1
2014-Nov-20 02:33S 29°52' E 031°02'6 5.6
2014-Nov-20 01:34S 29°49' E 031°07'3 2.8
2014-Nov-20 00:31S 29°47' E 031°10'0 0.0
2014-Nov-19 23:31S 29°47' E 031°10'0 0.0
2014-Nov-19 22:31S 29°47' E 031°10'0 0.1
2014-Nov-19 21:30S 29°47' E 031°10'0 0.0
2014-Nov-19 20:30S 29°47' E 031°10'0 0.0
2014-Nov-19 19:30S 29°47' E 031°10'0 0.0
2014-Nov-19 18:30S 29°47' E 031°10'0 0.0
2014-Nov-19 17:30S 29°47' E 031°10'0 0.0
2014-Nov-19 16:30S 29°47' E 031°10'0 0.0
2014-Nov-19 15:30S 29°47' E 031°10'0 0.1
2014-Nov-19 14:30S 29°47' E 031°10'0 0.1
2014-Nov-19 13:30S 29°47' E 031°10'0 0.0
2014-Nov-19 12:30S 29°47' E 031°10'0 0.0
2014-Nov-19 11:30S 29°47' E 031°10'0 0.0
2014-Nov-19 10:24S 29°47' E 031°10'0 0.0
2014-Nov-19 09:30S 29°47' E 031°10'0 0.0
2014-Nov-19 08:30S 29°47' E 031°10'0 0.0
2014-Nov-19 07:30S 29°47' E 031°10'0 0.0
2014-Nov-19 06:30S 29°47' E 031°10'1 1.2
2014-Nov-19 05:33S 29°48' E 031°09'6 6.3
2014-Nov-19 04:34S 29°54' E 031°06'9 8.9
2014-Nov-19 03:34S 30°02' E 031°03'315 8.7
2014-Nov-17 15:29S 33°55' E 026°53'435 9.6
2014-Nov-15 18:08S 34°16' E 018°08'  

Dump ship's entire track history